createdAt,value
2019-01-31T00:01:38.229Z,100.00
2019-01-31T00:04:50.776Z,100.00
2019-01-31T00:07:46.333Z,100.00
2019-01-31T00:10:38.459Z,100.00
2019-01-31T00:13:19.808Z,100.00
2019-01-31T00:16:21.190Z,100.00
2019-01-31T00:19:03.077Z,100.00
2019-01-31T00:21:56.439Z,100.00
2019-01-31T00:24:49.123Z,100.00
2019-01-31T00:28:00.260Z,100.00
2019-01-31T00:30:56.247Z,100.00
2019-01-31T00:33:54.655Z,100.00
2019-01-31T00:36:46.154Z,100.00
2019-01-31T00:40:10.475Z,100.00
2019-01-31T00:43:28.542Z,100.00
2019-01-31T00:46:29.369Z,100.00
2019-01-31T00:49:57.247Z,100.00
2019-01-31T00:53:15.345Z,100.00
2019-01-31T00:56:27.614Z,100.00
2019-01-31T00:59:45.996Z,100.00
2019-01-31T01:02:39.751Z,100.00
2019-01-31T01:05:26.029Z,100.00
2019-01-31T01:08:37.765Z,100.00
2019-01-31T01:11:25.036Z,100.00
2019-01-31T01:14:27.235Z,100.00
2019-01-31T01:17:04.737Z,100.00
2019-01-31T01:20:00.879Z,100.00
2019-01-31T01:22:51.904Z,100.00
2019-01-31T01:26:19.395Z,100.00
2019-01-31T01:29:08.870Z,100.00
2019-01-31T01:32:16.920Z,100.00
2019-01-31T01:35:34.922Z,100.00
2019-01-31T01:38:50.001Z,100.00
2019-01-31T01:41:35.392Z,100.00
2019-01-31T01:44:44.505Z,100.00
2019-01-31T01:47:35.368Z,100.00
2019-01-31T01:50:19.098Z,100.00
2019-01-31T01:53:15.128Z,100.00
2019-01-31T01:56:15.482Z,100.00
2019-01-31T01:59:14.567Z,100.00
2019-01-31T02:02:15.012Z,100.00
2019-01-31T02:05:36.051Z,100.00
2019-01-31T02:08:24.302Z,100.00
2019-01-31T02:11:27.785Z,100.00
2019-01-31T02:14:22.046Z,100.00
2019-01-31T02:17:17.601Z,100.00
2019-01-31T02:20:31.629Z,100.00
2019-01-31T02:23:04.304Z,100.00
2019-01-31T02:25:47.983Z,100.00
2019-01-31T02:28:54.210Z,100.00
2019-01-31T02:31:48.444Z,100.00
2019-01-31T02:34:43.265Z,100.00
2019-01-31T02:37:24.265Z,100.00
2019-01-31T02:40:07.964Z,100.00
2019-01-31T02:43:32.085Z,100.00
2019-01-31T02:46:24.147Z,100.00
2019-01-31T02:49:06.971Z,100.00
2019-01-31T02:52:17.837Z,100.00
2019-01-31T02:55:04.671Z,100.00
2019-01-31T02:58:02.086Z,100.00
2019-01-31T03:01:17.191Z,100.00
2019-01-31T03:04:12.554Z,100.00
2019-01-31T03:07:46.266Z,100.00
2019-01-31T03:10:39.561Z,100.00
2019-01-31T03:13:53.281Z,100.00
2019-01-31T03:17:05.087Z,100.00
2019-01-31T03:20:01.362Z,100.00
2019-01-31T03:22:58.962Z,100.00
2019-01-31T03:25:57.834Z,100.00
2019-01-31T03:29:16.162Z,100.00
2019-01-31T03:32:09.532Z,100.00
2019-01-31T03:35:27.648Z,100.00
2019-01-31T03:38:12.539Z,100.00
2019-01-31T03:41:05.053Z,100.00
2019-01-31T03:44:32.490Z,100.00
2019-01-31T03:47:33.571Z,100.00
2019-01-31T03:50:37.796Z,100.00
2019-01-31T03:53:55.966Z,100.00
2019-01-31T03:56:46.222Z,100.00
2019-01-31T03:59:26.910Z,100.00
2019-01-31T04:02:28.731Z,100.00
2019-01-31T04:05:45.567Z,100.00
2019-01-31T04:08:13.038Z,100.00
2019-01-31T04:10:40.544Z,100.00
2019-01-31T04:13:08.047Z,100.00
2019-01-31T04:15:35.626Z,100.00
2019-01-31T04:18:03.347Z,100.00
2019-01-31T04:20:30.826Z,100.00
2019-01-31T04:22:58.416Z,100.00
2019-01-31T04:25:25.948Z,100.00
2019-01-31T04:27:53.551Z,100.00
2019-01-31T04:30:21.153Z,100.00
2019-01-31T04:32:48.983Z,100.00
2019-01-31T04:35:16.735Z,100.00
2019-01-31T04:37:44.647Z,100.00
2019-01-31T04:40:12.617Z,100.00
2019-01-31T04:42:40.299Z,100.00
2019-01-31T04:45:08.056Z,100.00
2019-01-31T04:47:35.760Z,100.00
2019-01-31T04:50:05.534Z,100.00
2019-01-31T04:52:33.029Z,100.00
2019-01-31T04:55:00.648Z,100.00
2019-01-31T04:57:28.292Z,100.00
2019-01-31T04:59:55.799Z,100.00
2019-01-31T05:02:23.476Z,100.00
2019-01-31T05:04:51.184Z,100.00
2019-01-31T05:07:18.851Z,100.00
2019-01-31T05:09:46.443Z,100.00
2019-01-31T05:12:13.919Z,100.00
2019-01-31T05:14:41.924Z,100.00
2019-01-31T05:17:09.539Z,100.00
2019-01-31T05:19:37.110Z,100.00
2019-01-31T05:22:04.823Z,100.00
2019-01-31T05:24:32.488Z,100.00
2019-01-31T05:26:59.987Z,100.00
2019-01-31T05:29:27.521Z,100.00
2019-01-31T05:31:55.080Z,100.00
2019-01-31T05:34:22.680Z,100.00
2019-01-31T05:36:50.515Z,100.00
2019-01-31T05:39:18.020Z,100.00
2019-01-31T05:41:45.577Z,100.00
2019-01-31T05:44:13.423Z,100.00
2019-01-31T05:46:40.986Z,100.00
2019-01-31T05:49:08.601Z,100.00
2019-01-31T05:51:39.358Z,100.00
2019-01-31T05:54:06.289Z,100.00
2019-01-31T05:56:34.028Z,100.00
2019-01-31T05:59:01.681Z,100.00
2019-01-31T06:01:29.535Z,100.00
2019-01-31T06:03:57.208Z,100.00
2019-01-31T06:06:24.739Z,100.00
2019-01-31T06:08:52.382Z,100.00
2019-01-31T06:11:20.085Z,100.00
2019-01-31T06:13:47.750Z,100.00
2019-01-31T06:16:15.505Z,100.00
2019-01-31T06:18:43.183Z,100.00
2019-01-31T06:21:11.097Z,100.00
2019-01-31T06:23:39.121Z,100.00
2019-01-31T06:26:06.870Z,100.00
2019-01-31T06:28:35.428Z,100.00
2019-01-31T06:31:03.337Z,100.00
2019-01-31T06:33:30.971Z,100.00
2019-01-31T06:35:58.620Z,100.00
2019-01-31T06:38:26.542Z,100.00
2019-01-31T06:40:54.358Z,100.00
2019-01-31T06:43:22.547Z,100.00
2019-01-31T06:45:50.336Z,100.00
2019-01-31T06:48:17.961Z,100.00
2019-01-31T06:50:45.687Z,100.00
2019-01-31T06:53:13.432Z,100.00
2019-01-31T06:55:41.404Z,100.00
2019-01-31T06:58:09.025Z,100.00
2019-01-31T07:00:36.820Z,100.00
2019-01-31T07:03:04.715Z,100.00
2019-01-31T07:05:32.944Z,100.00
2019-01-31T07:08:00.753Z,100.00
2019-01-31T07:10:29.355Z,100.00
2019-01-31T07:12:57.277Z,100.00
2019-01-31T07:15:27.361Z,100.00
2019-01-31T07:18:13.023Z,100.00
2019-01-31T07:20:44.059Z,100.00
2019-01-31T07:23:12.192Z,100.00
2019-01-31T07:25:40.294Z,100.00
2019-01-31T07:28:08.675Z,100.00
2019-01-31T07:30:36.740Z,100.00
2019-01-31T07:33:04.548Z,100.00
2019-01-31T07:35:32.168Z,100.00
2019-01-31T07:38:00.102Z,100.00
2019-01-31T07:40:27.688Z,100.00
2019-01-31T07:42:55.225Z,100.00
2019-01-31T07:45:27.672Z,100.00
2019-01-31T07:47:55.334Z,100.00
2019-01-31T07:50:23.059Z,100.00
2019-01-31T07:52:50.971Z,100.00
2019-01-31T07:55:19.200Z,100.00
2019-01-31T07:57:47.245Z,100.00
2019-01-31T08:00:16.159Z,100.00
2019-01-31T08:02:43.857Z,100.00
2019-01-31T08:05:14.606Z,100.00
2019-01-31T08:07:42.465Z,100.00
2019-01-31T08:10:13.540Z,100.00
2019-01-31T08:12:41.223Z,100.00
2019-01-31T08:15:10.300Z,100.00
2019-01-31T08:17:38.134Z,100.00
2019-01-31T08:20:06.806Z,100.00
2019-01-31T08:22:34.593Z,100.00
2019-01-31T08:25:02.660Z,100.00
2019-01-31T08:27:30.425Z,100.00
2019-01-31T08:29:58.592Z,100.00
2019-01-31T08:32:26.507Z,100.00
2019-01-31T08:34:54.163Z,100.00
2019-01-31T08:37:24.553Z,100.00
2019-01-31T08:39:51.440Z,100.00
2019-01-31T08:42:19.271Z,100.00
2019-01-31T08:44:47.271Z,100.00
2019-01-31T08:47:15.018Z,100.00
2019-01-31T08:49:43.023Z,100.00
2019-01-31T08:52:10.821Z,100.00
2019-01-31T08:54:38.847Z,100.00
2019-01-31T08:57:06.623Z,100.00
2019-01-31T08:59:34.261Z,100.00
2019-01-31T09:02:02.176Z,100.00
2019-01-31T09:04:29.874Z,100.00
2019-01-31T09:06:57.443Z,100.00
2019-01-31T09:09:25.100Z,100.00
2019-01-31T09:11:52.819Z,100.00
2019-01-31T09:14:20.518Z,100.00
2019-01-31T09:16:48.249Z,100.00
2019-01-31T09:19:16.037Z,100.00
2019-01-31T09:22:14.798Z,100.00
2019-01-31T09:25:18.074Z,100.00
2019-01-31T09:28:26.145Z,100.00
2019-01-31T09:31:34.268Z,100.00
2019-01-31T09:34:12.132Z,100.00
2019-01-31T09:37:31.051Z,100.00
2019-01-31T09:40:38.758Z,100.00
2019-01-31T09:43:45.260Z,100.00
2019-01-31T09:46:46.636Z,100.00
2019-01-31T09:49:59.030Z,100.00
2019-01-31T09:53:03.978Z,100.00
2019-01-31T09:56:09.686Z,100.00
2019-01-31T09:59:13.390Z,100.00
2019-01-31T10:02:08.063Z,100.00
2019-01-31T10:05:04.738Z,100.00
2019-01-31T10:07:44.055Z,99.20
2019-01-31T10:10:43.288Z,100.00
2019-01-31T10:13:38.050Z,98.87
2019-01-31T10:16:30.879Z,100.00
2019-01-31T10:19:45.260Z,100.00
2019-01-31T10:22:44.668Z,100.00
2019-01-31T10:26:02.928Z,100.00
2019-01-31T10:29:08.085Z,96.01
2019-01-31T10:32:11.046Z,100.00
2019-01-31T10:35:29.924Z,100.00
2019-01-31T10:38:48.254Z,100.00
2019-01-31T10:41:51.388Z,96.10
2019-01-31T10:45:09.001Z,96.97
2019-01-31T10:48:07.900Z,100.00
2019-01-31T10:51:19.233Z,98.23
2019-01-31T10:54:34.476Z,98.18
2019-01-31T10:57:56.209Z,100.00
2019-01-31T11:00:40.171Z,96.46
2019-01-31T11:03:48.468Z,96.23
2019-01-31T11:06:53.716Z,96.76
2019-01-31T11:09:58.186Z,100.00
2019-01-31T11:13:06.671Z,97.12
2019-01-31T11:16:22.261Z,93.81
2019-01-31T11:20:02.842Z,99.75
2019-01-31T11:23:01.477Z,100.00
2019-01-31T11:26:09.624Z,100.00
2019-01-31T11:29:14.499Z,97.74
2019-01-31T11:31:54.384Z,100.00
2019-01-31T11:34:40.797Z,94.30
2019-01-31T11:37:37.221Z,94.22
2019-01-31T11:40:58.589Z,97.41
2019-01-31T11:43:47.616Z,96.80
2019-01-31T11:46:46.176Z,95.39
2019-01-31T11:50:03.379Z,97.32
2019-01-31T11:52:47.704Z,94.37
2019-01-31T11:55:52.518Z,92.44
2019-01-31T11:59:02.082Z,96.01
2019-01-31T12:01:30.243Z,93.12
2019-01-31T12:04:18.388Z,90.47
2019-01-31T12:06:46.360Z,96.00
2019-01-31T12:09:19.643Z,93.22
2019-01-31T12:11:48.686Z,89.00
2019-01-31T12:14:16.588Z,92.71
2019-01-31T12:16:44.744Z,88.37
2019-01-31T12:19:12.374Z,92.02
2019-01-31T12:21:40.102Z,85.86
2019-01-31T12:24:16.234Z,91.27
2019-01-31T12:26:37.658Z,89.63
2019-01-31T12:29:05.616Z,90.87
2019-01-31T12:31:33.249Z,90.76
2019-01-31T12:34:00.911Z,93.28
2019-01-31T12:36:28.580Z,87.15
2019-01-31T12:38:56.654Z,88.04
2019-01-31T12:41:25.443Z,86.37
2019-01-31T12:43:53.210Z,87.17
2019-01-31T12:46:20.844Z,88.83
2019-01-31T12:48:48.630Z,88.32
2019-01-31T12:51:16.674Z,83.69
2019-01-31T12:53:44.316Z,89.42
2019-01-31T12:56:11.933Z,90.32
2019-01-31T12:58:39.955Z,85.85
2019-01-31T13:01:07.633Z,85.77
2019-01-31T13:03:35.287Z,87.75
2019-01-31T13:06:03.060Z,91.93
2019-01-31T13:08:31.077Z,91.10
2019-01-31T13:10:58.919Z,91.69
2019-01-31T13:13:26.695Z,90.52
2019-01-31T13:15:54.498Z,88.55
2019-01-31T13:18:22.163Z,97.51
2019-01-31T13:20:49.758Z,92.09
2019-01-31T13:23:17.427Z,94.87
2019-01-31T13:25:45.025Z,95.45
2019-01-31T13:28:12.697Z,96.95
2019-01-31T13:30:40.415Z,93.75
2019-01-31T13:33:08.288Z,93.74
2019-01-31T13:35:36.311Z,96.07
2019-01-31T13:38:04.087Z,96.08
2019-01-31T13:40:31.772Z,97.53
2019-01-31T13:42:59.620Z,94.97
2019-01-31T13:45:29.772Z,98.02
2019-01-31T13:48:00.459Z,97.45
2019-01-31T13:50:28.237Z,98.24
2019-01-31T13:52:57.052Z,98.54
2019-01-31T13:55:26.971Z,98.65
2019-01-31T13:57:55.546Z,97.10
2019-01-31T14:00:23.974Z,97.28
2019-01-31T14:02:52.238Z,98.43
2019-01-31T14:05:19.824Z,100.00
2019-01-31T14:07:48.663Z,100.00
2019-01-31T14:10:21.074Z,100.00
2019-01-31T14:12:48.964Z,100.00
2019-01-31T14:15:19.368Z,100.00
2019-01-31T14:17:47.148Z,100.00
2019-01-31T14:20:17.978Z,100.00
2019-01-31T14:22:45.841Z,100.00
2019-01-31T14:25:13.672Z,100.00
2019-01-31T14:27:41.621Z,100.00
2019-01-31T14:30:16.754Z,100.00
2019-01-31T14:32:45.273Z,100.00
2019-01-31T14:35:13.132Z,100.00
2019-01-31T14:37:40.721Z,100.00
2019-01-31T14:40:10.455Z,100.00
2019-01-31T14:42:38.214Z,100.00
2019-01-31T14:45:07.579Z,100.00
2019-01-31T14:47:35.429Z,100.00
2019-01-31T14:50:04.833Z,100.00
2019-01-31T14:52:32.521Z,100.00
2019-01-31T14:55:00.450Z,100.00
2019-01-31T14:57:28.604Z,100.00
2019-01-31T14:59:56.207Z,100.00
2019-01-31T15:02:23.839Z,100.00
2019-01-31T15:04:51.589Z,100.00
2019-01-31T15:07:19.451Z,100.00
2019-01-31T15:09:47.342Z,100.00
2019-01-31T15:12:15.109Z,100.00
2019-01-31T15:14:43.023Z,100.00
2019-01-31T15:17:10.769Z,100.00
2019-01-31T15:19:38.398Z,100.00
2019-01-31T15:22:07.001Z,100.00
2019-01-31T15:24:35.138Z,100.00
2019-01-31T15:27:03.055Z,100.00
2019-01-31T15:29:30.938Z,100.00
2019-01-31T15:31:58.677Z,100.00
2019-01-31T15:34:26.413Z,100.00
2019-01-31T15:36:54.241Z,100.00
2019-01-31T15:39:22.401Z,100.00
2019-01-31T15:41:50.498Z,100.00
2019-01-31T15:44:18.254Z,100.00
2019-01-31T15:46:46.020Z,100.00
2019-01-31T15:49:13.712Z,100.00
2019-01-31T15:51:41.550Z,100.00
2019-01-31T15:54:10.264Z,100.00
2019-01-31T15:56:38.063Z,100.00
2019-01-31T15:59:05.994Z,100.00
2019-01-31T16:01:33.748Z,100.00
2019-01-31T16:04:01.582Z,100.00
2019-01-31T16:06:29.227Z,100.00
2019-01-31T16:08:56.896Z,100.00
2019-01-31T16:11:24.668Z,100.00
2019-01-31T16:13:52.277Z,100.00
2019-01-31T16:16:20.488Z,100.00
2019-01-31T16:18:48.270Z,100.00
2019-01-31T16:21:15.906Z,100.00
2019-01-31T16:23:43.681Z,100.00
2019-01-31T16:26:11.471Z,100.00
2019-01-31T16:28:39.415Z,100.00
2019-01-31T16:31:07.041Z,100.00
2019-01-31T16:33:34.597Z,100.00
2019-01-31T16:36:02.738Z,100.00
2019-01-31T16:38:30.387Z,100.00
2019-01-31T16:40:58.008Z,100.00
2019-01-31T16:43:26.072Z,100.00
2019-01-31T16:45:53.939Z,100.00
2019-01-31T16:48:21.737Z,100.00
2019-01-31T16:50:51.280Z,100.00
2019-01-31T16:53:20.468Z,100.00
2019-01-31T16:55:48.517Z,100.00
2019-01-31T16:58:16.735Z,100.00
2019-01-31T17:00:44.446Z,100.00
2019-01-31T17:03:13.214Z,100.00
2019-01-31T17:05:41.303Z,100.00
2019-01-31T17:08:09.221Z,100.00
2019-01-31T17:10:37.043Z,100.00
2019-01-31T17:13:05.251Z,100.00
2019-01-31T17:15:33.132Z,100.00
2019-01-31T17:18:00.817Z,100.00
2019-01-31T17:20:42.577Z,100.00
2019-01-31T17:23:10.473Z,100.00
2019-01-31T17:25:38.290Z,100.00
2019-01-31T17:28:05.962Z,100.00
2019-01-31T17:30:34.024Z,100.00
2019-01-31T17:33:01.966Z,100.00
2019-01-31T17:35:29.959Z,100.00
2019-01-31T17:37:57.938Z,100.00
2019-01-31T17:40:28.065Z,100.00
2019-01-31T17:42:56.088Z,100.00
2019-01-31T17:45:30.501Z,100.00
2019-01-31T17:47:54.271Z,100.00
2019-01-31T17:50:22.128Z,100.00
2019-01-31T17:52:49.863Z,100.00
2019-01-31T17:55:19.610Z,100.00
2019-01-31T17:57:47.611Z,100.00
2019-01-31T18:00:19.290Z,100.00
2019-01-31T18:02:47.486Z,100.00
2019-01-31T18:05:18.765Z,100.00
2019-01-31T18:07:46.578Z,100.00
2019-01-31T18:10:17.310Z,100.00
2019-01-31T18:12:45.430Z,100.00
2019-01-31T18:15:14.445Z,100.00
2019-01-31T18:17:42.412Z,100.00
2019-01-31T18:20:12.476Z,100.00
2019-01-31T18:22:40.551Z,100.00
2019-01-31T18:25:08.776Z,100.00
2019-01-31T18:27:36.367Z,100.00
2019-01-31T18:30:06.484Z,100.00
2019-01-31T18:32:34.212Z,100.00
2019-01-31T18:35:01.917Z,100.00
2019-01-31T18:37:31.949Z,100.00
2019-01-31T18:39:59.749Z,100.00
2019-01-31T18:42:27.527Z,100.00
2019-01-31T18:44:55.399Z,100.00
2019-01-31T18:47:23.557Z,100.00
2019-01-31T18:49:51.865Z,100.00
2019-01-31T18:52:23.672Z,100.00
2019-01-31T18:54:57.171Z,100.00
2019-01-31T18:57:25.017Z,100.00
2019-01-31T18:59:54.547Z,100.00
2019-01-31T19:02:22.560Z,100.00
2019-01-31T19:04:50.542Z,100.00
2019-01-31T19:07:19.466Z,100.00
2019-01-31T19:09:49.601Z,100.00
2019-01-31T19:12:18.183Z,100.00
2019-01-31T19:14:45.977Z,100.00
2019-01-31T19:17:13.712Z,100.00
2019-01-31T19:19:41.604Z,100.00
2019-01-31T19:22:09.414Z,100.00
2019-01-31T19:24:37.127Z,100.00
2019-01-31T19:27:05.149Z,100.00
2019-01-31T19:29:33.070Z,100.00
2019-01-31T19:32:00.938Z,100.00
2019-01-31T19:34:28.624Z,100.00
2019-01-31T19:36:56.243Z,100.00
2019-01-31T19:39:24.078Z,100.00
2019-01-31T19:41:51.806Z,100.00
2019-01-31T19:44:19.571Z,100.00
2019-01-31T19:46:47.185Z,100.00
2019-01-31T19:49:14.870Z,100.00
2019-01-31T19:51:42.543Z,100.00
2019-01-31T19:54:10.326Z,100.00
2019-01-31T19:56:38.071Z,100.00
2019-01-31T19:59:06.705Z,100.00
2019-01-31T20:01:34.629Z,100.00
2019-01-31T20:04:02.479Z,100.00
2019-01-31T20:06:30.330Z,100.00
2019-01-31T20:08:57.937Z,100.00
2019-01-31T20:11:25.564Z,100.00
2019-01-31T20:13:53.399Z,100.00
2019-01-31T20:16:28.524Z,100.00
2019-01-31T20:18:50.872Z,100.00
2019-01-31T20:21:18.571Z,100.00
2019-01-31T20:23:46.316Z,100.00
2019-01-31T20:26:14.045Z,100.00
2019-01-31T20:28:41.910Z,100.00
2019-01-31T20:31:09.646Z,100.00
2019-01-31T20:33:37.368Z,100.00
2019-01-31T20:36:06.537Z,100.00
2019-01-31T20:38:34.440Z,100.00
2019-01-31T20:41:02.212Z,100.00
2019-01-31T20:43:31.168Z,100.00
2019-01-31T20:45:58.948Z,100.00
2019-01-31T20:48:26.697Z,100.00
2019-01-31T20:50:54.809Z,100.00
2019-01-31T20:53:22.662Z,100.00
2019-01-31T20:55:50.427Z,100.00
2019-01-31T20:58:18.273Z,100.00
2019-01-31T21:00:46.865Z,100.00
2019-01-31T21:03:14.556Z,100.00
2019-01-31T21:05:42.532Z,100.00
2019-01-31T21:08:11.504Z,100.00
2019-01-31T21:10:39.292Z,100.00
2019-01-31T21:13:07.320Z,100.00
2019-01-31T21:15:35.536Z,100.00
2019-01-31T21:18:03.675Z,100.00
2019-01-31T21:20:31.345Z,100.00
2019-01-31T21:22:58.869Z,100.00
2019-01-31T21:25:26.450Z,100.00
2019-01-31T21:27:54.141Z,100.00
2019-01-31T21:30:27.190Z,100.00
2019-01-31T21:32:55.002Z,100.00
2019-01-31T21:35:22.674Z,100.00
2019-01-31T21:37:50.833Z,100.00
2019-01-31T21:40:19.865Z,100.00
2019-01-31T21:42:47.681Z,100.00
2019-01-31T21:45:15.768Z,100.00
2019-01-31T21:47:43.405Z,100.00
2019-01-31T21:50:13.626Z,100.00
2019-01-31T21:52:41.263Z,100.00
2019-01-31T21:55:09.526Z,100.00
2019-01-31T21:57:37.198Z,100.00
2019-01-31T22:00:08.283Z,100.00
2019-01-31T22:02:36.097Z,100.00
2019-01-31T22:05:05.249Z,100.00
2019-01-31T22:07:33.097Z,100.00
2019-01-31T22:10:01.235Z,100.00
2019-01-31T22:12:29.145Z,100.00
2019-01-31T22:14:56.939Z,100.00
2019-01-31T22:17:24.665Z,100.00
2019-01-31T22:19:52.874Z,100.00
2019-01-31T22:22:20.559Z,100.00
2019-01-31T22:24:48.411Z,100.00
2019-01-31T22:27:15.967Z,100.00
2019-01-31T22:29:43.759Z,100.00
2019-01-31T22:32:11.326Z,100.00
2019-01-31T22:34:38.973Z,100.00
2019-01-31T22:37:06.662Z,100.00
2019-01-31T22:39:34.310Z,100.00
2019-01-31T22:42:01.876Z,100.00
2019-01-31T22:44:29.590Z,100.00
2019-01-31T22:46:57.372Z,100.00
2019-01-31T22:49:25.146Z,100.00
2019-01-31T22:51:52.877Z,100.00
2019-01-31T22:54:20.406Z,100.00
2019-01-31T22:56:48.038Z,100.00
2019-01-31T22:59:15.730Z,100.00
2019-01-31T23:01:49.506Z,100.00
2019-01-31T23:04:17.152Z,100.00
2019-01-31T23:06:44.744Z,100.00
2019-01-31T23:09:13.205Z,100.00
2019-01-31T23:11:40.952Z,100.00
2019-01-31T23:14:08.823Z,100.00
2019-01-31T23:16:36.436Z,100.00
2019-01-31T23:19:04.613Z,100.00
2019-01-31T23:21:32.180Z,100.00
2019-01-31T23:23:59.825Z,100.00
2019-01-31T23:26:27.530Z,100.00
2019-01-31T23:28:55.285Z,100.00
2019-01-31T23:31:23.013Z,100.00
2019-01-31T23:33:50.803Z,100.00
2019-01-31T23:36:18.733Z,100.00
2019-01-31T23:38:46.447Z,100.00
2019-01-31T23:41:14.512Z,100.00
2019-01-31T23:43:42.388Z,100.00
2019-01-31T23:46:10.239Z,100.00
2019-01-31T23:48:38.008Z,100.00
2019-01-31T23:51:05.731Z,100.00
2019-01-31T23:53:33.367Z,100.00
2019-01-31T23:56:00.984Z,100.00
2019-01-31T23:58:28.534Z,100.00
